sensor_id;sensor_type;location;lat;lon;timestamp;pressure;altitude;pressure_sealevel;temperature;humidity
2184;BME280;1098;48.940;8.962;2023-01-29T00:00:14;99660.66;;;-0.37;100.00
2184;BME280;1098;48.940;8.962;2023-01-29T00:02:44;99653.63;;;-0.26;100.00
2184;BME280;1098;48.940;8.962;2023-01-29T00:05:12;99646.66;;;-0.39;100.00
2184;BME280;1098;48.940;8.962;2023-01-29T00:07:54;99646.63;;;-0.27;100.00
2184;BME280;1098;48.940;8.962;2023-01-29T00:10:22;99639.13;;;0.08;100.00
2184;BME280;1098;48.940;8.962;2023-01-29T00:12:52;99641.63;;;-0.21;100.00
2184;BME280;1098;48.940;8.962;2023-01-29T00:15:20;99648.44;;;-0.28;100.00
2184;BME280;1098;48.940;8.962;2023-01-29T00:17:50;99646.09;;;-0.21;100.00
2184;BME280;1098;48.940;8.962;2023-01-29T00:20:18;99632.75;;;-0.31;100.00
2184;BME280;1098;48.940;8.962;2023-01-29T00:22:46;99644.81;;;-0.27;100.00
2184;BME280;1098;48.940;8.962;2023-01-29T00:25:14;99648.59;;;-0.41;100.00
2184;BME280;1098;48.940;8.962;2023-01-29T00:27:42;99645.09;;;-0.41;100.00
2184;BME280;1098;48.940;8.962;2023-01-29T00:30:11;99643.25;;;-0.50;100.00
2184;BME280;1098;48.940;8.962;2023-01-29T00:32:39;99642.06;;;-0.37;100.00
2184;BME280;1098;48.940;8.962;2023-01-29T00:35:09;99641.75;;;-0.43;100.00
2184;BME280;1098;48.940;8.962;2023-01-29T00:37:37;99644.47;;;-0.33;100.00
2184;BME280;1098;48.940;8.962;2023-01-29T00:40:05;99642.72;;;-0.44;100.00
2184;BME280;1098;48.940;8.962;2023-01-29T00:42:34;99646.03;;;-0.52;100.00
2184;BME280;1098;48.940;8.962;2023-01-29T00:45:22;99644.94;;;-0.49;100.00
2184;BME280;1098;48.940;8.962;2023-01-29T00:47:50;99651.78;;;-0.47;100.00
2184;BME280;1098;48.940;8.962;2023-01-29T00:50:19;99651.59;;;-0.55;100.00
2184;BME280;1098;48.940;8.962;2023-01-29T00:52:50;99629.16;;;-0.62;100.00
2184;BME280;1098;48.940;8.962;2023-01-29T00:55:20;99642.66;;;-0.54;100.00
2184;BME280;1098;48.940;8.962;2023-01-29T00:57:48;99646.16;;;-0.32;100.00
2184;BME280;1098;48.940;8.962;2023-01-29T01:00:17;99644.81;;;-0.48;100.00
2184;BME280;1098;48.940;8.962;2023-01-29T01:02:45;99644.69;;;-0.46;100.00
2184;BME280;1098;48.940;8.962;2023-01-29T01:05:32;99647.00;;;-0.53;100.00
2184;BME280;1098;48.940;8.962;2023-01-29T01:08:00;99643.56;;;-0.44;100.00
2184;BME280;1098;48.940;8.962;2023-01-29T01:10:29;99641.94;;;-0.35;100.00
2184;BME280;1098;48.940;8.962;2023-01-29T01:12:58;99636.16;;;-0.40;100.00
2184;BME280;1098;48.940;8.962;2023-01-29T01:15:28;99630.94;;;-0.30;100.00
2184;BME280;1098;48.940;8.962;2023-01-29T01:17:57;99634.81;;;-0.55;100.00
2184;BME280;1098;48.940;8.962;2023-01-29T01:20:26;99636.75;;;-0.57;100.00
2184;BME280;1098;48.940;8.962;2023-01-29T01:22:56;99633.97;;;-0.56;100.00
2184;BME280;1098;48.940;8.962;2023-01-29T01:25:24;99632.88;;;-0.53;100.00
2184;BME280;1098;48.940;8.962;2023-01-29T01:27:52;99643.03;;;-0.58;100.00
2184;BME280;1098;48.940;8.962;2023-01-29T01:30:21;99645.44;;;-0.55;100.00
2184;BME280;1098;48.940;8.962;2023-01-29T01:32:50;99647.38;;;-0.57;100.00
2184;BME280;1098;48.940;8.962;2023-01-29T01:35:18;99655.53;;;-0.49;100.00
2184;BME280;1098;48.940;8.962;2023-01-29T01:37:46;99651.59;;;-0.55;100.00
2184;BME280;1098;48.940;8.962;2023-01-29T01:42:48;99646.50;;;-0.47;100.00
2184;BME280;1098;48.940;8.962;2023-01-29T01:45:17;99638.91;;;-0.30;100.00
2184;BME280;1098;48.940;8.962;2023-01-29T01:47:47;99640.63;;;0.31;100.00
2184;BME280;1098;48.940;8.962;2023-01-29T01:50:17;99636.31;;;0.00;100.00
2184;BME280;1098;48.940;8.962;2023-01-29T01:52:47;99641.31;;;-0.27;100.00
2184;BME280;1098;48.940;8.962;2023-01-29T01:55:17;99629.75;;;-0.38;100.00
2184;BME280;1098;48.940;8.962;2023-01-29T01:57:49;99630.56;;;-0.26;100.00
2184;BME280;1098;48.940;8.962;2023-01-29T02:00:18;99632.25;;;0.06;100.00
2184;BME280;1098;48.940;8.962;2023-01-29T02:02:48;99626.13;;;0.45;100.00
2184;BME280;1098;48.940;8.962;2023-01-29T02:05:33;99625.91;;;0.18;100.00
2184;BME280;1098;48.940;8.962;2023-01-29T02:08:22;99637.44;;;0.78;100.00
2184;BME280;1098;48.940;8.962;2023-01-29T02:11:10;99633.81;;;0.08;100.00
2184;BME280;1098;48.940;8.962;2023-01-29T02:13:39;99636.94;;;0.23;100.00
2184;BME280;1098;48.940;8.962;2023-01-29T02:16:10;99634.03;;;0.66;100.00
2184;BME280;1098;48.940;8.962;2023-01-29T02:18:38;99632.34;;;0.65;100.00
2184;BME280;1098;48.940;8.962;2023-01-29T02:21:12;99636.59;;;0.77;100.00
2184;BME280;1098;48.940;8.962;2023-01-29T02:23:56;99643.63;;;0.48;100.00
2184;BME280;1098;48.940;8.962;2023-01-29T02:26:39;99648.09;;;-0.14;100.00
2184;BME280;1098;48.940;8.962;2023-01-29T02:29:11;99643.03;;;-0.17;100.00
2184;BME280;1098;48.940;8.962;2023-01-29T02:31:56;99640.28;;;0.15;100.00
2184;BME280;1098;48.940;8.962;2023-01-29T02:34:28;99640.00;;;0.49;100.00
2184;BME280;1098;48.940;8.962;2023-01-29T02:37:19;99634.41;;;0.21;100.00
2184;BME280;1098;48.940;8.962;2023-01-29T02:39:50;99641.28;;;-0.07;100.00
2184;BME280;1098;48.940;8.962;2023-01-29T02:42:24;99635.88;;;0.05;100.00
2184;BME280;1098;48.940;8.962;2023-01-29T02:44:56;99634.75;;;-0.03;100.00
2184;BME280;1098;48.940;8.962;2023-01-29T02:47:28;99634.56;;;-0.11;100.00
2184;BME280;1098;48.940;8.962;2023-01-29T02:50:02;99628.16;;;-0.50;100.00
2184;BME280;1098;48.940;8.962;2023-01-29T02:52:32;99639.47;;;-0.68;100.00
2184;BME280;1098;48.940;8.962;2023-01-29T02:55:03;99634.22;;;-0.59;100.00
2184;BME280;1098;48.940;8.962;2023-01-29T02:57:35;99633.09;;;-0.77;100.00
2184;BME280;1098;48.940;8.962;2023-01-29T03:00:08;99637.69;;;-0.79;100.00
2184;BME280;1098;48.940;8.962;2023-01-29T03:02:40;99631.88;;;-0.73;100.00
2184;BME280;1098;48.940;8.962;2023-01-29T03:05:11;99635.19;;;-0.60;100.00
2184;BME280;1098;48.940;8.962;2023-01-29T03:07:45;99629.19;;;-0.41;100.00
2184;BME280;1098;48.940;8.962;2023-01-29T03:10:30;99632.13;;;-0.44;100.00
2184;BME280;1098;48.940;8.962;2023-01-29T03:13:02;99632.50;;;-0.28;100.00
2184;BME280;1098;48.940;8.962;2023-01-29T03:15:37;99638.59;;;0.14;100.00
2184;BME280;1098;48.940;8.962;2023-01-29T03:18:22;99629.84;;;-0.49;100.00
2184;BME280;1098;48.940;8.962;2023-01-29T03:20:57;99637.00;;;-0.60;100.00
2184;BME280;1098;48.940;8.962;2023-01-29T03:23:29;99627.38;;;-0.41;100.00
2184;BME280;1098;48.940;8.962;2023-01-29T03:26:19;99628.75;;;-0.46;100.00
2184;BME280;1098;48.940;8.962;2023-01-29T03:29:34;99629.31;;;-0.63;100.00
2184;BME280;1098;48.940;8.962;2023-01-29T03:32:27;99625.28;;;-0.58;100.00
2184;BME280;1098;48.940;8.962;2023-01-29T03:34:57;99630.09;;;-0.52;100.00
2184;BME280;1098;48.940;8.962;2023-01-29T03:37:28;99624.84;;;-0.01;100.00
2184;BME280;1098;48.940;8.962;2023-01-29T03:40:04;99625.38;;;0.03;100.00
2184;BME280;1098;48.940;8.962;2023-01-29T03:42:36;99626.78;;;-0.03;100.00
2184;BME280;1098;48.940;8.962;2023-01-29T03:45:09;99630.44;;;-0.77;100.00
2184;BME280;1098;48.940;8.962;2023-01-29T03:47:46;99628.50;;;-0.75;100.00
2184;BME280;1098;48.940;8.962;2023-01-29T03:50:20;99626.84;;;-0.55;100.00
2184;BME280;1098;48.940;8.962;2023-01-29T03:52:55;99625.13;;;-0.45;100.00
2184;BME280;1098;48.940;8.962;2023-01-29T03:55:28;99627.66;;;-0.44;100.00
2184;BME280;1098;48.940;8.962;2023-01-29T03:58:03;99627.22;;;-0.60;100.00
2184;BME280;1098;48.940;8.962;2023-01-29T04:00:33;99628.41;;;-0.53;100.00
2184;BME280;1098;48.940;8.962;2023-01-29T04:03:07;99643.69;;;-0.66;100.00
2184;BME280;1098;48.940;8.962;2023-01-29T04:05:41;99637.84;;;-0.60;100.00
2184;BME280;1098;48.940;8.962;2023-01-29T04:08:21;99634.41;;;-0.72;100.00
2184;BME280;1098;48.940;8.962;2023-01-29T04:10:52;99628.06;;;-0.59;100.00
2184;BME280;1098;48.940;8.962;2023-01-29T04:13:24;99631.31;;;-0.56;100.00
2184;BME280;1098;48.940;8.962;2023-01-29T04:15:56;99635.50;;;-0.74;100.00
2184;BME280;1098;48.940;8.962;2023-01-29T04:18:47;99634.28;;;-0.70;100.00
2184;BME280;1098;48.940;8.962;2023-01-29T04:21:20;99643.78;;;-0.88;100.00
2184;BME280;1098;48.940;8.962;2023-01-29T04:23:48;99642.25;;;-0.70;100.00
2184;BME280;1098;48.940;8.962;2023-01-29T04:29:09;99640.88;;;-0.85;100.00
2184;BME280;1098;48.940;8.962;2023-01-29T04:31:46;99646.34;;;-0.66;100.00
2184;BME280;1098;48.940;8.962;2023-01-29T04:34:20;99637.59;;;-0.57;100.00
2184;BME280;1098;48.940;8.962;2023-01-29T04:36:53;99646.63;;;-0.80;100.00
2184;BME280;1098;48.940;8.962;2023-01-29T04:39:30;99644.16;;;-0.93;100.00
2184;BME280;1098;48.940;8.962;2023-01-29T04:42:05;99645.84;;;-0.92;100.00
2184;BME280;1098;48.940;8.962;2023-01-29T04:44:37;99646.53;;;-0.90;100.00
2184;BME280;1098;48.940;8.962;2023-01-29T04:47:08;99643.91;;;-0.90;100.00
2184;BME280;1098;48.940;8.962;2023-01-29T04:49:44;99641.06;;;-0.77;100.00
2184;BME280;1098;48.940;8.962;2023-01-29T04:52:14;99644.50;;;-0.97;100.00
2184;BME280;1098;48.940;8.962;2023-01-29T04:54:48;99650.75;;;-0.87;100.00
2184;BME280;1098;48.940;8.962;2023-01-29T04:57:18;99639.09;;;-0.96;100.00
2184;BME280;1098;48.940;8.962;2023-01-29T04:59:52;99636.31;;;-0.94;100.00
2184;BME280;1098;48.940;8.962;2023-01-29T05:02:24;99641.19;;;-1.11;100.00
2184;BME280;1098;48.940;8.962;2023-01-29T05:04:55;99631.53;;;-1.12;100.00
2184;BME280;1098;48.940;8.962;2023-01-29T05:07:25;99630.94;;;-1.15;100.00
2184;BME280;1098;48.940;8.962;2023-01-29T05:09:54;99629.38;;;-1.07;100.00
2184;BME280;1098;48.940;8.962;2023-01-29T05:12:23;99635.63;;;-1.08;100.00
2184;BME280;1098;48.940;8.962;2023-01-29T05:14:52;99642.41;;;-1.15;100.00
2184;BME280;1098;48.940;8.962;2023-01-29T05:17:23;99651.06;;;-1.13;100.00
2184;BME280;1098;48.940;8.962;2023-01-29T05:19:51;99650.59;;;-1.07;100.00
2184;BME280;1098;48.940;8.962;2023-01-29T05:22:20;99650.72;;;-1.08;100.00
2184;BME280;1098;48.940;8.962;2023-01-29T05:24:49;99653.47;;;-1.10;100.00
2184;BME280;1098;48.940;8.962;2023-01-29T05:27:18;99654.94;;;-1.06;100.00
2184;BME280;1098;48.940;8.962;2023-01-29T05:30:04;99648.19;;;-1.10;100.00
2184;BME280;1098;48.940;8.962;2023-01-29T05:32:33;99644.38;;;-0.85;100.00
2184;BME280;1098;48.940;8.962;2023-01-29T05:35:01;99633.09;;;-0.24;100.00
2184;BME280;1098;48.940;8.962;2023-01-29T05:37:32;99629.50;;;-0.14;100.00
2184;BME280;1098;48.940;8.962;2023-01-29T05:40:00;99609.25;;;-0.36;100.00
2184;BME280;1098;48.940;8.962;2023-01-29T05:42:31;99593.38;;;-0.26;100.00
2184;BME280;1098;48.940;8.962;2023-01-29T05:44:59;99582.81;;;-0.58;100.00
2184;BME280;1098;48.940;8.962;2023-01-29T05:47:28;99592.81;;;-0.71;100.00
2184;BME280;1098;48.940;8.962;2023-01-29T05:49:56;99605.44;;;-0.95;100.00
2184;BME280;1098;48.940;8.962;2023-01-29T05:52:24;99611.09;;;-0.89;100.00
2184;BME280;1098;48.940;8.962;2023-01-29T05:54:53;99625.28;;;-0.58;100.00
2184;BME280;1098;48.940;8.962;2023-01-29T05:57:21;99617.28;;;-0.26;100.00
2184;BME280;1098;48.940;8.962;2023-01-29T05:59:49;99611.00;;;-0.66;100.00
2184;BME280;1098;48.940;8.962;2023-01-29T06:02:17;99612.94;;;-1.00;100.00
2184;BME280;1098;48.940;8.962;2023-01-29T06:04:45;99613.94;;;-1.13;100.00
2184;BME280;1098;48.940;8.962;2023-01-29T06:07:13;99619.97;;;-1.11;100.00
2184;BME280;1098;48.940;8.962;2023-01-29T06:09:44;99611.34;;;-0.92;100.00
2184;BME280;1098;48.940;8.962;2023-01-29T06:12:13;99617.91;;;-1.07;100.00
2184;BME280;1098;48.940;8.962;2023-01-29T06:14:41;99611.91;;;-1.09;100.00
2184;BME280;1098;48.940;8.962;2023-01-29T06:17:09;99609.66;;;-0.93;100.00
2184;BME280;1098;48.940;8.962;2023-01-29T06:19:37;99611.59;;;-1.27;100.00
2184;BME280;1098;48.940;8.962;2023-01-29T06:22:06;99623.47;;;-1.21;100.00
2184;BME280;1098;48.940;8.962;2023-01-29T06:24:34;99618.00;;;-0.97;100.00
2184;BME280;1098;48.940;8.962;2023-01-29T06:27:02;99618.28;;;-1.12;100.00
2184;BME280;1098;48.940;8.962;2023-01-29T06:29:31;99624.78;;;-0.52;100.00
2184;BME280;1098;48.940;8.962;2023-01-29T06:31:59;99612.66;;;-0.03;100.00
2184;BME280;1098;48.940;8.962;2023-01-29T06:34:28;99621.19;;;0.31;100.00
2184;BME280;1098;48.940;8.962;2023-01-29T06:36:56;99614.63;;;-0.99;100.00
2184;BME280;1098;48.940;8.962;2023-01-29T06:39:24;99613.47;;;-1.07;100.00
2184;BME280;1098;48.940;8.962;2023-01-29T06:41:52;99614.69;;;-0.58;100.00
2184;BME280;1098;48.940;8.962;2023-01-29T06:44:20;99622.03;;;-0.82;100.00
2184;BME280;1098;48.940;8.962;2023-01-29T06:46:50;99615.97;;;-0.31;100.00
2184;BME280;1098;48.940;8.962;2023-01-29T06:49:18;99613.53;;;-0.23;100.00
2184;BME280;1098;48.940;8.962;2023-01-29T06:51:46;99618.97;;;-0.25;100.00
2184;BME280;1098;48.940;8.962;2023-01-29T06:54:16;99618.22;;;-0.06;100.00
2184;BME280;1098;48.940;8.962;2023-01-29T06:56:44;99620.19;;;-0.29;100.00
2184;BME280;1098;48.940;8.962;2023-01-29T06:59:12;99615.06;;;0.00;100.00
2184;BME280;1098;48.940;8.962;2023-01-29T07:01:40;99608.13;;;0.18;100.00
2184;BME280;1098;48.940;8.962;2023-01-29T07:04:11;99611.50;;;0.20;100.00
2184;BME280;1098;48.940;8.962;2023-01-29T07:06:40;99615.06;;;0.00;100.00
2184;BME280;1098;48.940;8.962;2023-01-29T07:09:10;99610.22;;;-0.37;100.00
2184;BME280;1098;48.940;8.962;2023-01-29T07:11:38;99618.72;;;-0.43;100.00
2184;BME280;1098;48.940;8.962;2023-01-29T07:14:06;99628.50;;;-0.43;100.00
2184;BME280;1098;48.940;8.962;2023-01-29T07:16:34;99629.81;;;-0.07;100.00
2184;BME280;1098;48.940;8.962;2023-01-29T07:19:02;99639.88;;;-0.31;100.00
2184;BME280;1098;48.940;8.962;2023-01-29T07:21:32;99638.66;;;-0.48;100.00
2184;BME280;1098;48.940;8.962;2023-01-29T07:24:00;99633.72;;;-0.53;100.00
2184;BME280;1098;48.940;8.962;2023-01-29T07:26:29;99644.41;;;-0.43;100.00
2184;BME280;1098;48.940;8.962;2023-01-29T07:28:57;99642.03;;;0.05;100.00
2184;BME280;1098;48.940;8.962;2023-01-29T07:31:25;99645.94;;;0.31;100.00
2184;BME280;1098;48.940;8.962;2023-01-29T07:33:53;99644.22;;;-0.30;100.00
2184;BME280;1098;48.940;8.962;2023-01-29T07:36:21;99644.94;;;-0.28;100.00
2184;BME280;1098;48.940;8.962;2023-01-29T07:38:51;99651.47;;;0.40;100.00
2184;BME280;1098;48.940;8.962;2023-01-29T07:41:19;99645.41;;;0.07;100.00
2184;BME280;1098;48.940;8.962;2023-01-29T07:43:47;99656.78;;;0.40;100.00
2184;BME280;1098;48.940;8.962;2023-01-29T07:46:15;99650.56;;;-0.22;100.00
2184;BME280;1098;48.940;8.962;2023-01-29T07:48:43;99654.91;;;-0.21;100.00
2184;BME280;1098;48.940;8.962;2023-01-29T07:51:11;99649.66;;;-0.11;100.00
2184;BME280;1098;48.940;8.962;2023-01-29T07:53:39;99651.97;;;0.03;100.00
2184;BME280;1098;48.940;8.962;2023-01-29T07:56:11;99656.25;;;-0.06;100.00
2184;BME280;1098;48.940;8.962;2023-01-29T07:58:39;99661.28;;;0.18;100.00
2184;BME280;1098;48.940;8.962;2023-01-29T08:01:07;99669.22;;;0.39;100.00
2184;BME280;1098;48.940;8.962;2023-01-29T08:03:35;99678.06;;;0.19;100.00
2184;BME280;1098;48.940;8.962;2023-01-29T08:06:06;99678.56;;;0.33;100.00
2184;BME280;1098;48.940;8.962;2023-01-29T08:08:34;99679.09;;;0.27;100.00
2184;BME280;1098;48.940;8.962;2023-01-29T08:11:02;99680.16;;;0.46;100.00
2184;BME280;1098;48.940;8.962;2023-01-29T08:13:32;99681.22;;;0.33;100.00
2184;BME280;1098;48.940;8.962;2023-01-29T08:16:01;99682.81;;;-0.47;100.00
2184;BME280;1098;48.940;8.962;2023-01-29T08:18:29;99674.63;;;0.07;100.00
2184;BME280;1098;48.940;8.962;2023-01-29T08:20:58;99672.63;;;0.20;100.00
2184;BME280;1098;48.940;8.962;2023-01-29T08:23:26;99681.31;;;1.02;100.00
2184;BME280;1098;48.940;8.962;2023-01-29T08:25:56;99685.91;;;0.81;100.00
2184;BME280;1098;48.940;8.962;2023-01-29T08:28:25;99685.44;;;0.76;100.00
2184;BME280;1098;48.940;8.962;2023-01-29T08:30:54;99679.44;;;0.44;100.00
2184;BME280;1098;48.940;8.962;2023-01-29T08:33:22;99682.41;;;0.20;100.00
2184;BME280;1098;48.940;8.962;2023-01-29T08:36:04;99681.41;;;0.21;100.00
2184;BME280;1098;48.940;8.962;2023-01-29T08:38:32;99680.56;;;0.81;100.00
2184;BME280;1098;48.940;8.962;2023-01-29T08:41:00;99689.94;;;0.76;100.00
2184;BME280;1098;48.940;8.962;2023-01-29T08:43:29;99686.94;;;0.59;100.00
2184;BME280;1098;48.940;8.962;2023-01-29T08:45:58;99689.72;;;0.58;100.00
2184;BME280;1098;48.940;8.962;2023-01-29T08:48:26;99687.84;;;0.89;100.00
2184;BME280;1098;48.940;8.962;2023-01-29T08:50:56;99680.56;;;0.81;100.00
2184;BME280;1098;48.940;8.962;2023-01-29T08:53:25;99689.78;;;0.77;100.00
2184;BME280;1098;48.940;8.962;2023-01-29T08:55:53;99693.88;;;0.91;100.00
2184;BME280;1098;48.940;8.962;2023-01-29T08:58:21;99676.25;;;0.90;100.00
2184;BME280;1098;48.940;8.962;2023-01-29T09:00:52;99686.97;;;0.08;100.00
2184;BME280;1098;48.940;8.962;2023-01-29T09:03:21;99689.59;;;1.09;100.00
2184;BME280;1098;48.940;8.962;2023-01-29T09:05:49;99696.34;;;0.73;100.00
2184;BME280;1098;48.940;8.962;2023-01-29T09:08:17;99695.31;;;0.95;100.00
2184;BME280;1098;48.940;8.962;2023-01-29T09:10:48;99697.78;;;0.16;100.00
2184;BME280;1098;48.940;8.962;2023-01-29T09:13:16;99694.13;;;0.38;100.00
2184;BME280;1098;48.940;8.962;2023-01-29T09:15:44;99700.50;;;0.56;100.00
2184;BME280;1098;48.940;8.962;2023-01-29T09:18:12;99698.88;;;1.24;100.00
2184;BME280;1098;48.940;8.962;2023-01-29T09:20:41;99705.09;;;0.94;100.00
2184;BME280;1098;48.940;8.962;2023-01-29T09:23:09;99705.50;;;0.80;100.00
2184;BME280;1098;48.940;8.962;2023-01-29T09:25:38;99711.00;;;0.58;100.00
2184;BME280;1098;48.940;8.962;2023-01-29T09:28:06;99714.31;;;0.50;100.00
2184;BME280;1098;48.940;8.962;2023-01-29T09:30:34;99713.66;;;1.08;100.00
2184;BME280;1098;48.940;8.962;2023-01-29T09:33:04;99702.03;;;1.09;100.00
2184;BME280;1098;48.940;8.962;2023-01-29T09:35:32;99700.00;;;1.51;100.00
2184;BME280;1098;48.940;8.962;2023-01-29T09:38:05;99689.63;;;1.19;100.00
2184;BME280;1098;48.940;8.962;2023-01-29T09:40:34;99674.78;;;1.35;100.00
2184;BME280;1098;48.940;8.962;2023-01-29T09:43:05;99663.25;;;1.73;100.00
2184;BME280;1098;48.940;8.962;2023-01-29T09:45:36;99659.31;;;1.87;100.00
2184;BME280;1098;48.940;8.962;2023-01-29T09:48:09;99658.41;;;2.16;100.00
2184;BME280;1098;48.940;8.962;2023-01-29T09:50:39;99657.69;;;1.57;100.00
2184;BME280;1098;48.940;8.962;2023-01-29T09:53:13;99660.72;;;0.95;100.00
2184;BME280;1098;48.940;8.962;2023-01-29T09:55:44;99639.84;;;1.67;100.00
2184;BME280;1098;48.940;8.962;2023-01-29T09:58:16;99641.53;;;1.49;100.00
2184;BME280;1098;48.940;8.962;2023-01-29T10:00:50;99635.97;;;2.18;100.00
2184;BME280;1098;48.940;8.962;2023-01-29T10:03:37;99643.59;;;1.94;100.00
2184;BME280;1098;48.940;8.962;2023-01-29T10:06:20;99647.94;;;1.95;100.00
2184;BME280;1098;48.940;8.962;2023-01-29T10:09:00;99654.59;;;1.52;100.00
2184;BME280;1098;48.940;8.962;2023-01-29T10:11:33;99666.78;;;1.55;100.00
2184;BME280;1098;48.940;8.962;2023-01-29T10:14:08;99664.88;;;2.13;100.00
2184;BME280;1098;48.940;8.962;2023-01-29T10:16:41;99655.38;;;1.91;100.00
2184;BME280;1098;48.940;8.962;2023-01-29T10:19:30;99646.13;;;1.95;100.00
2184;BME280;1098;48.940;8.962;2023-01-29T10:22:11;99650.97;;;1.44;100.00
2184;BME280;1098;48.940;8.962;2023-01-29T10:24:50;99650.47;;;0.81;100.00
2184;BME280;1098;48.940;8.962;2023-01-29T10:27:24;99649.34;;;0.93;100.00
2184;BME280;1098;48.940;8.962;2023-01-29T10:29:54;99655.44;;;1.43;100.00
2184;BME280;1098;48.940;8.962;2023-01-29T10:32:24;99648.38;;;1.90;100.00
2184;BME280;1098;48.940;8.962;2023-01-29T10:34:53;99652.31;;;1.86;100.00
2184;BME280;1098;48.940;8.962;2023-01-29T10:37:23;99659.34;;;1.49;100.00
2184;BME280;1098;48.940;8.962;2023-01-29T10:39:54;99651.47;;;1.66;100.00
2184;BME280;1098;48.940;8.962;2023-01-29T10:42:24;99661.31;;;1.56;100.00
2184;BME280;1098;48.940;8.962;2023-01-29T10:45:00;99652.06;;;2.63;100.00
2184;BME280;1098;48.940;8.962;2023-01-29T10:47:43;99664.06;;;2.03;100.00
2184;BME280;1098;48.940;8.962;2023-01-29T10:50:17;99645.84;;;1.89;100.00
2184;BME280;1098;48.940;8.962;2023-01-29T10:55:40;99659.63;;;1.84;100.00
2184;BME280;1098;48.940;8.962;2023-01-29T10:58:13;99661.56;;;1.72;100.00
2184;BME280;1098;48.940;8.962;2023-01-29T11:00:44;99648.50;;;1.89;100.00
2184;BME280;1098;48.940;8.962;2023-01-29T11:03:13;99652.63;;;2.57;100.00
2184;BME280;1098;48.940;8.962;2023-01-29T11:05:55;99642.28;;;2.17;100.00
2184;BME280;1098;48.940;8.962;2023-01-29T11:08:25;99651.28;;;2.06;100.00
2184;BME280;1098;48.940;8.962;2023-01-29T11:10:59;99645.34;;;2.22;100.00
2184;BME280;1098;48.940;8.962;2023-01-29T11:13:30;99650.81;;;1.45;100.00
2184;BME280;1098;48.940;8.962;2023-01-29T11:15:59;99629.47;;;2.58;100.00
2184;BME280;1098;48.940;8.962;2023-01-29T11:18:27;99626.13;;;2.28;100.00
2184;BME280;1098;48.940;8.962;2023-01-29T11:21:14;99611.34;;;2.61;100.00
2184;BME280;1098;48.940;8.962;2023-01-29T11:23:43;99608.88;;;2.23;100.00
2184;BME280;1098;48.940;8.962;2023-01-29T11:26:15;99611.13;;;1.61;100.00
2184;BME280;1098;48.940;8.962;2023-01-29T11:28:45;99601.09;;;2.02;100.00
2184;BME280;1098;48.940;8.962;2023-01-29T11:31:14;99598.00;;;1.97;100.00
2184;BME280;1098;48.940;8.962;2023-01-29T11:33:42;99600.22;;;1.45;100.00
2184;BME280;1098;48.940;8.962;2023-01-29T11:36:23;99598.69;;;2.36;100.00
2184;BME280;1098;48.940;8.962;2023-01-29T11:41:51;99587.53;;;1.86;100.00
2184;BME280;1098;48.940;8.962;2023-01-29T11:44:21;99581.03;;;1.88;100.00
2184;BME280;1098;48.940;8.962;2023-01-29T11:46:53;99580.31;;;2.33;100.00
2184;BME280;1098;48.940;8.962;2023-01-29T11:49:25;99579.69;;;1.75;100.00
2184;BME280;1098;48.940;8.962;2023-01-29T11:51:55;99557.16;;;2.61;100.00
2184;BME280;1098;48.940;8.962;2023-01-29T11:54:24;99586.69;;;2.22;100.00
2184;BME280;1098;48.940;8.962;2023-01-29T11:56:56;99586.16;;;2.46;100.00
2184;BME280;1098;48.940;8.962;2023-01-29T11:59:31;99573.84;;;2.35;100.00
2184;BME280;1098;48.940;8.962;2023-01-29T12:02:04;99564.78;;;2.91;100.00
2184;BME280;1098;48.940;8.962;2023-01-29T12:04:33;99554.03;;;3.19;100.00
2184;BME280;1098;48.940;8.962;2023-01-29T12:07:03;99549.25;;;2.69;100.00
2184;BME280;1098;48.940;8.962;2023-01-29T12:09:38;99551.59;;;2.72;100.00
2184;BME280;1098;48.940;8.962;2023-01-29T12:12:16;99545.75;;;2.86;100.00
2184;BME280;1098;48.940;8.962;2023-01-29T12:14:45;99540.97;;;2.45;100.00
2184;BME280;1098;48.940;8.962;2023-01-29T12:17:14;99537.78;;;3.30;100.00
2184;BME280;1098;48.940;8.962;2023-01-29T12:19:46;99526.97;;;2.78;100.00
2184;BME280;1098;48.940;8.962;2023-01-29T12:22:19;99516.91;;;3.07;100.00
2184;BME280;1098;48.940;8.962;2023-01-29T12:24:49;99523.41;;;2.24;100.00
2184;BME280;1098;48.940;8.962;2023-01-29T12:27:23;99517.75;;;2.00;100.00
2184;BME280;1098;48.940;8.962;2023-01-29T12:29:55;99514.47;;;2.96;100.00
2184;BME280;1098;48.940;8.962;2023-01-29T12:32:28;99513.31;;;2.63;100.00
2184;BME280;1098;48.940;8.962;2023-01-29T12:35:00;99510.66;;;2.81;100.00
2184;BME280;1098;48.940;8.962;2023-01-29T12:37:34;99496.38;;;2.55;100.00
2184;BME280;1098;48.940;8.962;2023-01-29T12:40:09;99483.44;;;2.60;100.00
2184;BME280;1098;48.940;8.962;2023-01-29T12:42:39;99483.28;;;2.61;100.00
2184;BME280;1098;48.940;8.962;2023-01-29T12:45:08;99474.50;;;3.56;100.00
2184;BME280;1098;48.940;8.962;2023-01-29T12:47:40;99467.56;;;3.12;100.00
2184;BME280;1098;48.940;8.962;2023-01-29T12:50:13;99469.88;;;3.92;100.00
2184;BME280;1098;48.940;8.962;2023-01-29T12:52:45;99461.53;;;2.92;100.00
2184;BME280;1098;48.940;8.962;2023-01-29T12:55:15;99449.66;;;2.86;100.00
2184;BME280;1098;48.940;8.962;2023-01-29T12:57:47;99456.44;;;2.81;100.00
2184;BME280;1098;48.940;8.962;2023-01-29T13:00:19;99458.13;;;2.01;100.00
2184;BME280;1098;48.940;8.962;2023-01-29T13:02:51;99457.03;;;3.10;100.00
2184;BME280;1098;48.940;8.962;2023-01-29T13:05:22;99453.56;;;3.18;100.00
2184;BME280;1098;48.940;8.962;2023-01-29T13:07:53;99455.06;;;2.76;100.00
2184;BME280;1098;48.940;8.962;2023-01-29T13:10:27;99452.44;;;3.02;100.00
2184;BME280;1098;48.940;8.962;2023-01-29T13:12:59;99443.06;;;2.98;100.00
2184;BME280;1098;48.940;8.962;2023-01-29T13:15:30;99450.09;;;2.82;100.00
2184;BME280;1098;48.940;8.962;2023-01-29T13:18:05;99445.78;;;2.63;100.00
2184;BME280;1098;48.940;8.962;2023-01-29T13:20:42;99448.88;;;2.76;100.00
2184;BME280;1098;48.940;8.962;2023-01-29T13:23:14;99461.94;;;2.61;100.00
2184;BME280;1098;48.940;8.962;2023-01-29T13:25:43;99456.38;;;2.55;100.00
2184;BME280;1098;48.940;8.962;2023-01-29T13:28:16;99453.78;;;2.45;100.00
2184;BME280;1098;48.940;8.962;2023-01-29T13:30:45;99463.66;;;2.35;100.00
2184;BME280;1098;48.940;8.962;2023-01-29T13:33:17;99451.88;;;2.91;100.00
2184;BME280;1098;48.940;8.962;2023-01-29T13:35:47;99459.69;;;2.92;100.00
2184;BME280;1098;48.940;8.962;2023-01-29T13:38:25;99456.56;;;2.97;100.00
2184;BME280;1098;48.940;8.962;2023-01-29T13:40:55;99449.53;;;2.70;100.00
2184;BME280;1098;48.940;8.962;2023-01-29T13:43:28;99450.34;;;2.53;100.00
2184;BME280;1098;48.940;8.962;2023-01-29T13:46:05;99450.63;;;2.50;100.00
2184;BME280;1098;48.940;8.962;2023-01-29T13:48:39;99450.13;;;3.25;100.00
2184;BME280;1098;48.940;8.962;2023-01-29T13:51:09;99452.81;;;3.07;100.00